sensor_id;sensor_type;location;lat;lon;timestamp;P1;durP1;ratioP1;P2;durP2;ratioP2
36383;SDS011;22418;51.210;6.976;2023-09-30T00:00:13;19.42;;;5.75;;
36383;SDS011;22418;51.210;6.976;2023-09-30T00:02:44;19.75;;;6.30;;
36383;SDS011;22418;51.210;6.976;2023-09-30T00:05:14;13.20;;;5.53;;
36383;SDS011;22418;51.210;6.976;2023-09-30T00:07:45;22.03;;;6.17;;
36383;SDS011;22418;51.210;6.976;2023-09-30T00:10:16;20.45;;;5.35;;
36383;SDS011;22418;51.210;6.976;2023-09-30T00:12:47;18.50;;;5.83;;
36383;SDS011;22418;51.210;6.976;2023-09-30T00:15:17;17.53;;;4.90;;
36383;SDS011;22418;51.210;6.976;2023-09-30T00:17:48;13.67;;;4.90;;
36383;SDS011;22418;51.210;6.976;2023-09-30T00:20:18;13.20;;;4.87;;
36383;SDS011;22418;51.210;6.976;2023-09-30T00:22:52;12.20;;;4.47;;
36383;SDS011;22418;51.210;6.976;2023-09-30T00:25:23;24.47;;;6.27;;
36383;SDS011;22418;51.210;6.976;2023-09-30T00:27:53;13.90;;;4.93;;
36383;SDS011;22418;51.210;6.976;2023-09-30T00:30:24;12.60;;;4.83;;
36383;SDS011;22418;51.210;6.976;2023-09-30T00:32:55;13.90;;;5.57;;
36383;SDS011;22418;51.210;6.976;2023-09-30T00:35:25;13.97;;;5.00;;
36383;SDS011;22418;51.210;6.976;2023-09-30T00:37:56;15.37;;;4.57;;
36383;SDS011;22418;51.210;6.976;2023-09-30T00:40:26;13.80;;;5.07;;
36383;SDS011;22418;51.210;6.976;2023-09-30T00:42:57;16.23;;;4.80;;
36383;SDS011;22418;51.210;6.976;2023-09-30T00:45:28;13.40;;;4.63;;
36383;SDS011;22418;51.210;6.976;2023-09-30T00:50:31;15.60;;;5.32;;
36383;SDS011;22418;51.210;6.976;2023-09-30T00:53:01;13.90;;;4.57;;
36383;SDS011;22418;51.210;6.976;2023-09-30T00:55:32;14.48;;;4.85;;
36383;SDS011;22418;51.210;6.976;2023-09-30T00:58:03;16.77;;;5.63;;
36383;SDS011;22418;51.210;6.976;2023-09-30T01:00:35;16.92;;;6.00;;
36383;SDS011;22418;51.210;6.976;2023-09-30T01:03:05;12.93;;;4.97;;
36383;SDS011;22418;51.210;6.976;2023-09-30T01:05:37;18.40;;;5.10;;
36383;SDS011;22418;51.210;6.976;2023-09-30T01:08:08;12.63;;;4.65;;
36383;SDS011;22418;51.210;6.976;2023-09-30T01:10:38;19.33;;;5.27;;
36383;SDS011;22418;51.210;6.976;2023-09-30T01:13:09;14.87;;;5.80;;
36383;SDS011;22418;51.210;6.976;2023-09-30T01:15:40;17.97;;;6.57;;
36383;SDS011;22418;51.210;6.976;2023-09-30T01:18:10;17.93;;;4.67;;
36383;SDS011;22418;51.210;6.976;2023-09-30T01:20:41;17.97;;;5.33;;
36383;SDS011;22418;51.210;6.976;2023-09-30T01:23:12;16.97;;;5.17;;
36383;SDS011;22418;51.210;6.976;2023-09-30T01:25:43;17.33;;;5.13;;
36383;SDS011;22418;51.210;6.976;2023-09-30T01:28:14;23.00;;;5.65;;
36383;SDS011;22418;51.210;6.976;2023-09-30T01:30:46;17.58;;;5.38;;
36383;SDS011;22418;51.210;6.976;2023-09-30T01:33:17;14.90;;;4.97;;
36383;SDS011;22418;51.210;6.976;2023-09-30T01:35:49;15.70;;;5.25;;
36383;SDS011;22418;51.210;6.976;2023-09-30T01:38:19;24.40;;;6.05;;
36383;SDS011;22418;51.210;6.976;2023-09-30T01:40:50;24.30;;;6.37;;
36383;SDS011;22418;51.210;6.976;2023-09-30T01:43:21;18.20;;;4.50;;
36383;SDS011;22418;51.210;6.976;2023-09-30T01:45:52;16.40;;;4.73;;
36383;SDS011;22418;51.210;6.976;2023-09-30T01:48:22;17.33;;;5.07;;
36383;SDS011;22418;51.210;6.976;2023-09-30T01:50:53;20.03;;;6.20;;
36383;SDS011;22418;51.210;6.976;2023-09-30T01:53:23;17.10;;;5.23;;
36383;SDS011;22418;51.210;6.976;2023-09-30T01:55:54;19.73;;;5.50;;
36383;SDS011;22418;51.210;6.976;2023-09-30T01:58:24;18.17;;;5.07;;
36383;SDS011;22418;51.210;6.976;2023-09-30T02:01:01;13.95;;;5.18;;
36383;SDS011;22418;51.210;6.976;2023-09-30T02:03:34;13.95;;;4.63;;
36383;SDS011;22418;51.210;6.976;2023-09-30T02:06:06;18.50;;;5.03;;
36383;SDS011;22418;51.210;6.976;2023-09-30T02:08:36;15.77;;;4.80;;
36383;SDS011;22418;51.210;6.976;2023-09-30T02:11:07;14.60;;;4.73;;
36383;SDS011;22418;51.210;6.976;2023-09-30T02:13:37;22.97;;;5.37;;
36383;SDS011;22418;51.210;6.976;2023-09-30T02:16:11;16.60;;;5.57;;
36383;SDS011;22418;51.210;6.976;2023-09-30T02:18:43;22.63;;;6.20;;
36383;SDS011;22418;51.210;6.976;2023-09-30T02:21:20;14.05;;;4.93;;
36383;SDS011;22418;51.210;6.976;2023-09-30T02:23:54;11.90;;;4.47;;
36383;SDS011;22418;51.210;6.976;2023-09-30T02:26:25;16.83;;;4.95;;
36383;SDS011;22418;51.210;6.976;2023-09-30T02:28:57;16.98;;;4.63;;
36383;SDS011;22418;51.210;6.976;2023-09-30T02:31:28;19.20;;;5.00;;
36383;SDS011;22418;51.210;6.976;2023-09-30T02:33:58;18.07;;;5.37;;
36383;SDS011;22418;51.210;6.976;2023-09-30T02:36:29;18.95;;;5.03;;
36383;SDS011;22418;51.210;6.976;2023-09-30T02:39:00;14.87;;;4.50;;
36383;SDS011;22418;51.210;6.976;2023-09-30T02:41:31;20.33;;;5.33;;
36383;SDS011;22418;51.210;6.976;2023-09-30T02:44:01;17.07;;;5.10;;
36383;SDS011;22418;51.210;6.976;2023-09-30T02:46:32;17.13;;;4.87;;
36383;SDS011;22418;51.210;6.976;2023-09-30T02:49:02;14.40;;;5.00;;
36383;SDS011;22418;51.210;6.976;2023-09-30T02:51:33;12.60;;;3.90;;
36383;SDS011;22418;51.210;6.976;2023-09-30T02:54:04;11.13;;;4.43;;
36383;SDS011;22418;51.210;6.976;2023-09-30T02:56:34;15.48;;;4.68;;
36383;SDS011;22418;51.210;6.976;2023-09-30T02:59:06;11.32;;;4.13;;
36383;SDS011;22418;51.210;6.976;2023-09-30T03:01:37;15.25;;;5.22;;
36383;SDS011;22418;51.210;6.976;2023-09-30T03:04:08;13.40;;;4.40;;
36383;SDS011;22418;51.210;6.976;2023-09-30T03:09:10;10.20;;;4.20;;
36383;SDS011;22418;51.210;6.976;2023-09-30T03:11:43;13.18;;;4.60;;
36383;SDS011;22418;51.210;6.976;2023-09-30T03:14:16;17.17;;;4.80;;
36383;SDS011;22418;51.210;6.976;2023-09-30T03:16:47;14.60;;;4.53;;
36383;SDS011;22418;51.210;6.976;2023-09-30T03:19:17;12.40;;;4.80;;
36383;SDS011;22418;51.210;6.976;2023-09-30T03:21:48;10.80;;;4.30;;
36383;SDS011;22418;51.210;6.976;2023-09-30T03:24:18;12.70;;;4.37;;
36383;SDS011;22418;51.210;6.976;2023-09-30T03:26:49;13.87;;;5.63;;
36383;SDS011;22418;51.210;6.976;2023-09-30T03:29:20;14.20;;;4.90;;
36383;SDS011;22418;51.210;6.976;2023-09-30T03:31:50;17.77;;;5.03;;
36383;SDS011;22418;51.210;6.976;2023-09-30T03:34:22;15.05;;;5.25;;
36383;SDS011;22418;51.210;6.976;2023-09-30T03:36:53;17.70;;;5.33;;
36383;SDS011;22418;51.210;6.976;2023-09-30T03:39:25;17.38;;;5.45;;
36383;SDS011;22418;51.210;6.976;2023-09-30T03:41:57;17.58;;;5.63;;
36383;SDS011;22418;51.210;6.976;2023-09-30T03:44:29;21.33;;;7.53;;
36383;SDS011;22418;51.210;6.976;2023-09-30T03:46:59;21.30;;;6.90;;
36383;SDS011;22418;51.210;6.976;2023-09-30T03:49:30;18.37;;;5.97;;
36383;SDS011;22418;51.210;6.976;2023-09-30T03:52:01;17.67;;;6.23;;
36383;SDS011;22418;51.210;6.976;2023-09-30T03:54:32;25.50;;;8.80;;
36383;SDS011;22418;51.210;6.976;2023-09-30T03:57:03;25.70;;;8.27;;
36383;SDS011;22418;51.210;6.976;2023-09-30T03:59:34;17.02;;;7.25;;
36383;SDS011;22418;51.210;6.976;2023-09-30T04:02:04;42.67;;;12.03;;
36383;SDS011;22418;51.210;6.976;2023-09-30T04:07:07;32.90;;;11.47;;
36383;SDS011;22418;51.210;6.976;2023-09-30T04:09:40;33.50;;;10.57;;
36383;SDS011;22418;51.210;6.976;2023-09-30T04:12:10;25.70;;;9.87;;
36383;SDS011;22418;51.210;6.976;2023-09-30T04:14:41;33.00;;;12.35;;
36383;SDS011;22418;51.210;6.976;2023-09-30T04:17:12;34.73;;;10.93;;
36383;SDS011;22418;51.210;6.976;2023-09-30T04:19:42;29.17;;;10.30;;
36383;SDS011;22418;51.210;6.976;2023-09-30T04:22:13;27.60;;;11.77;;
36383;SDS011;22418;51.210;6.976;2023-09-30T04:24:43;28.07;;;10.27;;
36383;SDS011;22418;51.210;6.976;2023-09-30T04:27:14;23.10;;;8.87;;
36383;SDS011;22418;51.210;6.976;2023-09-30T04:29:44;33.80;;;11.83;;
36383;SDS011;22418;51.210;6.976;2023-09-30T04:32:15;25.87;;;9.87;;
36383;SDS011;22418;51.210;6.976;2023-09-30T04:34:45;32.10;;;11.57;;
36383;SDS011;22418;51.210;6.976;2023-09-30T04:37:17;31.48;;;11.75;;
36383;SDS011;22418;51.210;6.976;2023-09-30T04:39:47;35.27;;;12.93;;
36383;SDS011;22418;51.210;6.976;2023-09-30T04:42:18;27.17;;;10.52;;
36383;SDS011;22418;51.210;6.976;2023-09-30T04:44:49;31.40;;;10.90;;
36383;SDS011;22418;51.210;6.976;2023-09-30T04:47:19;23.70;;;9.57;;
36383;SDS011;22418;51.210;6.976;2023-09-30T04:49:50;27.13;;;9.70;;
36383;SDS011;22418;51.210;6.976;2023-09-30T04:52:21;25.00;;;9.82;;
36383;SDS011;22418;51.210;6.976;2023-09-30T04:54:54;36.40;;;9.50;;
36383;SDS011;22418;51.210;6.976;2023-09-30T04:57:24;29.07;;;9.70;;
36383;SDS011;22418;51.210;6.976;2023-09-30T04:59:55;29.45;;;9.02;;
36383;SDS011;22418;51.210;6.976;2023-09-30T05:02:27;25.73;;;9.25;;
36383;SDS011;22418;51.210;6.976;2023-09-30T05:04:57;26.77;;;9.38;;
36383;SDS011;22418;51.210;6.976;2023-09-30T05:07:28;30.73;;;9.83;;
36383;SDS011;22418;51.210;6.976;2023-09-30T05:09:59;25.20;;;10.00;;
36383;SDS011;22418;51.210;6.976;2023-09-30T05:12:29;24.08;;;9.73;;
36383;SDS011;22418;51.210;6.976;2023-09-30T05:15:00;23.63;;;10.37;;
36383;SDS011;22418;51.210;6.976;2023-09-30T05:17:32;23.42;;;9.77;;
36383;SDS011;22418;51.210;6.976;2023-09-30T05:20:02;22.70;;;9.60;;
36383;SDS011;22418;51.210;6.976;2023-09-30T05:22:36;24.27;;;10.40;;
36383;SDS011;22418;51.210;6.976;2023-09-30T05:25:09;30.30;;;11.15;;
36383;SDS011;22418;51.210;6.976;2023-09-30T05:27:39;26.93;;;10.50;;
36383;SDS011;22418;51.210;6.976;2023-09-30T05:30:10;21.60;;;10.90;;
36383;SDS011;22418;51.210;6.976;2023-09-30T05:32:41;25.05;;;9.90;;
36383;SDS011;22418;51.210;6.976;2023-09-30T05:35:11;25.90;;;9.37;;
36383;SDS011;22418;51.210;6.976;2023-09-30T05:37:43;27.45;;;8.82;;
36383;SDS011;22418;51.210;6.976;2023-09-30T05:40:17;25.38;;;9.00;;
36383;SDS011;22418;51.210;6.976;2023-09-30T05:43:00;29.15;;;9.85;;
36383;SDS011;22418;51.210;6.976;2023-09-30T05:45:31;23.77;;;9.37;;
36383;SDS011;22418;51.210;6.976;2023-09-30T05:48:05;26.00;;;10.02;;
36383;SDS011;22418;51.210;6.976;2023-09-30T05:50:36;24.47;;;9.50;;
36383;SDS011;22418;51.210;6.976;2023-09-30T05:53:08;26.60;;;9.73;;
36383;SDS011;22418;51.210;6.976;2023-09-30T05:55:40;18.10;;;8.43;;
36383;SDS011;22418;51.210;6.976;2023-09-30T05:58:13;26.90;;;9.85;;
36383;SDS011;22418;51.210;6.976;2023-09-30T06:00:46;25.40;;;7.93;;
36383;SDS011;22418;51.210;6.976;2023-09-30T06:03:17;25.70;;;9.80;;
36383;SDS011;22418;51.210;6.976;2023-09-30T06:05:47;22.83;;;9.33;;
36383;SDS011;22418;51.210;6.976;2023-09-30T06:08:18;20.77;;;8.23;;
36383;SDS011;22418;51.210;6.976;2023-09-30T06:10:48;20.80;;;7.90;;
36383;SDS011;22418;51.210;6.976;2023-09-30T06:13:19;25.10;;;10.03;;
36383;SDS011;22418;51.210;6.976;2023-09-30T06:15:51;22.35;;;8.07;;
36383;SDS011;22418;51.210;6.976;2023-09-30T06:18:21;24.87;;;9.87;;
36383;SDS011;22418;51.210;6.976;2023-09-30T06:20:52;23.92;;;9.15;;
36383;SDS011;22418;51.210;6.976;2023-09-30T06:23:23;26.67;;;9.83;;
36383;SDS011;22418;51.210;6.976;2023-09-30T06:25:53;29.17;;;9.83;;
36383;SDS011;22418;51.210;6.976;2023-09-30T06:28:24;29.47;;;10.07;;
36383;SDS011;22418;51.210;6.976;2023-09-30T06:30:56;26.30;;;9.45;;
36383;SDS011;22418;51.210;6.976;2023-09-30T06:33:27;28.33;;;10.52;;
36383;SDS011;22418;51.210;6.976;2023-09-30T06:36:02;23.38;;;8.10;;
36383;SDS011;22418;51.210;6.976;2023-09-30T06:38:33;20.02;;;8.18;;
36383;SDS011;22418;51.210;6.976;2023-09-30T06:41:03;24.70;;;8.63;;
36383;SDS011;22418;51.210;6.976;2023-09-30T06:46:08;23.02;;;8.32;;
36383;SDS011;22418;51.210;6.976;2023-09-30T06:48:39;25.35;;;8.25;;
36383;SDS011;22418;51.210;6.976;2023-09-30T06:51:13;21.15;;;8.68;;
36383;SDS011;22418;51.210;6.976;2023-09-30T06:53:47;26.65;;;9.90;;
36383;SDS011;22418;51.210;6.976;2023-09-30T06:56:18;21.93;;;8.53;;
36383;SDS011;22418;51.210;6.976;2023-09-30T06:58:48;26.27;;;9.47;;
36383;SDS011;22418;51.210;6.976;2023-09-30T07:01:19;30.30;;;9.60;;
36383;SDS011;22418;51.210;6.976;2023-09-30T07:03:49;22.77;;;9.87;;
36383;SDS011;22418;51.210;6.976;2023-09-30T07:08:52;25.90;;;9.80;;
36383;SDS011;22418;51.210;6.976;2023-09-30T07:11:27;24.63;;;10.37;;
36383;SDS011;22418;51.210;6.976;2023-09-30T07:14:03;23.05;;;9.40;;
36383;SDS011;22418;51.210;6.976;2023-09-30T07:16:34;25.75;;;10.73;;
36383;SDS011;22418;51.210;6.976;2023-09-30T07:19:05;25.08;;;9.35;;
36383;SDS011;22418;51.210;6.976;2023-09-30T07:21:36;19.57;;;8.37;;
36383;SDS011;22418;51.210;6.976;2023-09-30T07:26:38;25.53;;;9.83;;
36383;SDS011;22418;51.210;6.976;2023-09-30T07:29:09;21.70;;;9.33;;
36383;SDS011;22418;51.210;6.976;2023-09-30T07:31:40;20.17;;;8.95;;
36383;SDS011;22418;51.210;6.976;2023-09-30T07:34:10;22.37;;;8.57;;
36383;SDS011;22418;51.210;6.976;2023-09-30T07:36:41;19.93;;;8.47;;
36383;SDS011;22418;51.210;6.976;2023-09-30T07:39:11;20.57;;;8.10;;
36383;SDS011;22418;51.210;6.976;2023-09-30T07:41:44;22.15;;;8.50;;
36383;SDS011;22418;51.210;6.976;2023-09-30T07:44:15;21.83;;;7.73;;
36383;SDS011;22418;51.210;6.976;2023-09-30T07:46:45;19.10;;;8.00;;
36383;SDS011;22418;51.210;6.976;2023-09-30T07:49:17;24.00;;;8.63;;
36383;SDS011;22418;51.210;6.976;2023-09-30T07:51:47;17.40;;;7.07;;
36383;SDS011;22418;51.210;6.976;2023-09-30T07:54:18;14.60;;;6.67;;
36383;SDS011;22418;51.210;6.976;2023-09-30T07:56:48;20.73;;;7.73;;
36383;SDS011;22418;51.210;6.976;2023-09-30T07:59:19;18.17;;;8.20;;
36383;SDS011;22418;51.210;6.976;2023-09-30T08:01:49;21.03;;;7.87;;
36383;SDS011;22418;51.210;6.976;2023-09-30T08:04:20;20.17;;;9.00;;
36383;SDS011;22418;51.210;6.976;2023-09-30T08:06:51;16.23;;;7.13;;
36383;SDS011;22418;51.210;6.976;2023-09-30T08:09:21;16.00;;;6.33;;
36383;SDS011;22418;51.210;6.976;2023-09-30T08:11:53;14.73;;;6.97;;
36383;SDS011;22418;51.210;6.976;2023-09-30T08:14:24;19.40;;;7.73;;
36383;SDS011;22418;51.210;6.976;2023-09-30T08:16:55;19.55;;;7.75;;
36383;SDS011;22418;51.210;6.976;2023-09-30T08:19:26;19.80;;;7.20;;
36383;SDS011;22418;51.210;6.976;2023-09-30T08:21:59;14.25;;;6.53;;
36383;SDS011;22418;51.210;6.976;2023-09-30T08:24:29;22.20;;;9.80;;
36383;SDS011;22418;51.210;6.976;2023-09-30T08:27:00;21.90;;;8.70;;
36383;SDS011;22418;51.210;6.976;2023-09-30T08:29:33;20.23;;;9.17;;
36383;SDS011;22418;51.210;6.976;2023-09-30T08:32:05;20.75;;;10.07;;
36383;SDS011;22418;51.210;6.976;2023-09-30T08:34:37;20.33;;;8.13;;
36383;SDS011;22418;51.210;6.976;2023-09-30T08:37:07;21.90;;;10.17;;
36383;SDS011;22418;51.210;6.976;2023-09-30T08:39:39;23.08;;;9.60;;
36383;SDS011;22418;51.210;6.976;2023-09-30T08:42:10;20.17;;;10.13;;
36383;SDS011;22418;51.210;6.976;2023-09-30T08:44:41;21.30;;;9.93;;
36383;SDS011;22418;51.210;6.976;2023-09-30T08:47:12;21.75;;;10.02;;
36383;SDS011;22418;51.210;6.976;2023-09-30T08:49:43;19.77;;;7.70;;
36383;SDS011;22418;51.210;6.976;2023-09-30T08:52:14;17.80;;;9.03;;
36383;SDS011;22418;51.210;6.976;2023-09-30T08:54:44;16.73;;;7.68;;
36383;SDS011;22418;51.210;6.976;2023-09-30T08:57:15;17.60;;;7.20;;
36383;SDS011;22418;51.210;6.976;2023-09-30T08:59:49;17.92;;;7.18;;
36383;SDS011;22418;51.210;6.976;2023-09-30T09:02:20;17.02;;;7.00;;
36383;SDS011;22418;51.210;6.976;2023-09-30T09:04:51;19.53;;;8.07;;
36383;SDS011;22418;51.210;6.976;2023-09-30T09:10:06;18.23;;;9.37;;
36383;SDS011;22418;51.210;6.976;2023-09-30T09:12:38;20.77;;;8.82;;
36383;SDS011;22418;51.210;6.976;2023-09-30T09:17:50;21.80;;;8.77;;
36383;SDS011;22418;51.210;6.976;2023-09-30T09:20:22;19.67;;;7.80;;
36383;SDS011;22418;51.210;6.976;2023-09-30T09:22:55;15.35;;;7.35;;
36383;SDS011;22418;51.210;6.976;2023-09-30T09:25:28;14.57;;;6.93;;
36383;SDS011;22418;51.210;6.976;2023-09-30T09:27:58;16.73;;;6.77;;
36383;SDS011;22418;51.210;6.976;2023-09-30T09:30:29;18.50;;;7.87;;
36383;SDS011;22418;51.210;6.976;2023-09-30T09:33:03;17.80;;;8.27;;
36383;SDS011;22418;51.210;6.976;2023-09-30T09:35:35;17.98;;;7.32;;
36383;SDS011;22418;51.210;6.976;2023-09-30T09:38:06;17.02;;;7.45;;
36383;SDS011;22418;51.210;6.976;2023-09-30T09:40:38;17.58;;;7.03;;
36383;SDS011;22418;51.210;6.976;2023-09-30T09:43:10;14.30;;;6.43;;
36383;SDS011;22418;51.210;6.976;2023-09-30T09:45:41;18.63;;;9.18;;
36383;SDS011;22418;51.210;6.976;2023-09-30T09:48:13;17.00;;;7.90;;
36383;SDS011;22418;51.210;6.976;2023-09-30T09:50:45;21.13;;;7.35;;
36383;SDS011;22418;51.210;6.976;2023-09-30T09:55:48;19.02;;;7.90;;
36383;SDS011;22418;51.210;6.976;2023-09-30T09:58:21;16.77;;;7.82;;
36383;SDS011;22418;51.210;6.976;2023-09-30T10:00:52;20.20;;;7.00;;
36383;SDS011;22418;51.210;6.976;2023-09-30T10:03:23;17.55;;;6.22;;
36383;SDS011;22418;51.210;6.976;2023-09-30T10:05:54;11.75;;;4.90;;
36383;SDS011;22418;51.210;6.976;2023-09-30T10:08:35;13.75;;;6.18;;
36383;SDS011;22418;51.210;6.976;2023-09-30T10:11:10;18.20;;;6.18;;
36383;SDS011;22418;51.210;6.976;2023-09-30T10:14:06;18.75;;;7.70;;
36383;SDS011;22418;51.210;6.976;2023-09-30T10:19:14;15.10;;;6.73;;
36383;SDS011;22418;51.210;6.976;2023-09-30T10:24:52;33.60;;;7.45;;
36383;SDS011;22418;51.210;6.976;2023-09-30T10:40:55;15.30;;;5.93;;
36383;SDS011;22418;51.210;6.976;2023-09-30T10:43:32;13.13;;;5.00;;
36383;SDS011;22418;51.210;6.976;2023-09-30T10:46:05;17.05;;;6.38;;
36383;SDS011;22418;51.210;6.976;2023-09-30T10:48:57;15.77;;;5.50;;
36383;SDS011;22418;51.210;6.976;2023-09-30T10:51:47;13.45;;;5.70;;
36383;SDS011;22418;51.210;6.976;2023-09-30T10:56:55;10.52;;;5.07;;
36383;SDS011;22418;51.210;6.976;2023-09-30T10:59:29;12.55;;;4.80;;
36383;SDS011;22418;51.210;6.976;2023-09-30T11:04:42;13.70;;;4.93;;
36383;SDS011;22418;51.210;6.976;2023-09-30T11:07:20;9.63;;;4.15;;
36383;SDS011;22418;51.210;6.976;2023-09-30T11:09:53;10.32;;;4.50;;
36383;SDS011;22418;51.210;6.976;2023-09-30T11:14:59;12.10;;;4.33;;
36383;SDS011;22418;51.210;6.976;2023-09-30T11:17:31;11.70;;;4.18;;
36383;SDS011;22418;51.210;6.976;2023-09-30T11:20:02;12.00;;;3.93;;
36383;SDS011;22418;51.210;6.976;2023-09-30T11:22:36;10.88;;;4.65;;
36383;SDS011;22418;51.210;6.976;2023-09-30T11:25:13;10.95;;;4.82;;
36383;SDS011;22418;51.210;6.976;2023-09-30T11:27:46;9.85;;;4.18;;
36383;SDS011;22418;51.210;6.976;2023-09-30T11:30:17;10.40;;;5.13;;
36383;SDS011;22418;51.210;6.976;2023-09-30T11:32:57;9.63;;;4.63;;
36383;SDS011;22418;51.210;6.976;2023-09-30T11:35:30;11.38;;;4.90;;
36383;SDS011;22418;51.210;6.976;2023-09-30T11:38:00;11.37;;;4.40;;
36383;SDS011;22418;51.210;6.976;2023-09-30T11:40:31;13.83;;;5.23;;
36383;SDS011;22418;51.210;6.976;2023-09-30T11:43:06;11.73;;;4.03;;
36383;SDS011;22418;51.210;6.976;2023-09-30T11:45:37;14.75;;;4.22;;
36383;SDS011;22418;51.210;6.976;2023-09-30T11:48:17;10.23;;;4.27;;
36383;SDS011;22418;51.210;6.976;2023-09-30T11:50:49;8.95;;;3.70;;
36383;SDS011;22418;51.210;6.976;2023-09-30T11:53:20;16.00;;;5.10;;
36383;SDS011;22418;51.210;6.976;2023-09-30T11:55:51;9.67;;;4.47;;
36383;SDS011;22418;51.210;6.976;2023-09-30T11:58:28;10.32;;;3.58;;
36383;SDS011;22418;51.210;6.976;2023-09-30T12:00:59;15.13;;;3.78;;
36383;SDS011;22418;51.210;6.976;2023-09-30T12:03:29;8.57;;;2.90;;
36383;SDS011;22418;51.210;6.976;2023-09-30T12:06:00;10.60;;;3.73;;
36383;SDS011;22418;51.210;6.976;2023-09-30T12:08:30;9.53;;;3.40;;
36383;SDS011;22418;51.210;6.976;2023-09-30T12:11:02;8.63;;;3.22;;
36383;SDS011;22418;51.210;6.976;2023-09-30T12:13:32;9.70;;;3.20;;
36383;SDS011;22418;51.210;6.976;2023-09-30T12:16:03;8.70;;;3.53;;
36383;SDS011;22418;51.210;6.976;2023-09-30T12:18:33;10.13;;;3.27;;
36383;SDS011;22418;51.210;6.976;2023-09-30T12:21:04;11.30;;;3.57;;
36383;SDS011;22418;51.210;6.976;2023-09-30T12:23:37;8.68;;;3.30;;
36383;SDS011;22418;51.210;6.976;2023-09-30T12:26:07;9.50;;;3.58;;
36383;SDS011;22418;51.210;6.976;2023-09-30T12:28:38;12.33;;;3.93;;
36383;SDS011;22418;51.210;6.976;2023-09-30T12:31:10;12.80;;;3.90;;
36383;SDS011;22418;51.210;6.976;2023-09-30T12:33:41;13.33;;;3.67;;
36383;SDS011;22418;51.210;6.976;2023-09-30T12:36:11;8.23;;;3.30;;
36383;SDS011;22418;51.210;6.976;2023-09-30T12:38:43;11.77;;;4.07;;
36383;SDS011;22418;51.210;6.976;2023-09-30T12:41:14;12.02;;;3.63;;
36383;SDS011;22418;51.210;6.976;2023-09-30T12:43:49;12.85;;;5.43;;
36383;SDS011;22418;51.210;6.976;2023-09-30T12:46:20;11.95;;;3.58;;
36383;SDS011;22418;51.210;6.976;2023-09-30T12:48:50;8.33;;;3.10;;
36383;SDS011;22418;51.210;6.976;2023-09-30T12:51:21;7.53;;;2.80;;
36383;SDS011;22418;51.210;6.976;2023-09-30T12:53:51;8.97;;;3.23;;
36383;SDS011;22418;51.210;6.976;2023-09-30T12:56:22;9.37;;;3.77;;
36383;SDS011;22418;51.210;6.976;2023-09-30T12:58:52;13.27;;;3.37;;
36383;SDS011;22418;51.210;6.976;2023-09-30T13:01:23;8.35;;;3.28;;
36383;SDS011;22418;51.210;6.976;2023-09-30T13:03:54;9.65;;;3.65;;
36383;SDS011;22418;51.210;6.976;2023-09-30T13:06:25;7.60;;;2.90;;
36383;SDS011;22418;51.210;6.976;2023-09-30T13:08:55;11.57;;;3.70;;
36383;SDS011;22418;51.210;6.976;2023-09-30T13:11:26;11.50;;;3.60;;
36383;SDS011;22418;51.210;6.976;2023-09-30T13:13:57;9.47;;;3.23;;
36383;SDS011;22418;51.210;6.976;2023-09-30T13:16:27;9.93;;;2.83;;
36383;SDS011;22418;51.210;6.976;2023-09-30T13:18:58;10.83;;;3.23;;
36383;SDS011;22418;51.210;6.976;2023-09-30T13:21:28;20.17;;;4.13;;
36383;SDS011;22418;51.210;6.976;2023-09-30T13:23:59;11.87;;;3.70;;
36383;SDS011;22418;51.210;6.976;2023-09-30T13:26:29;12.00;;;2.97;;
36383;SDS011;22418;51.210;6.976;2023-09-30T13:29:00;10.50;;;3.23;;
36383;SDS011;22418;51.210;6.976;2023-09-30T13:31:31;8.75;;;2.80;;
36383;SDS011;22418;51.210;6.976;2023-09-30T13:34:02;8.30;;;3.03;;
36383;SDS011;22418;51.210;6.976;2023-09-30T13:36:33;10.40;;;2.78;;
36383;SDS011;22418;51.210;6.976;2023-09-30T13:39:04;11.63;;;3.08;;
36383;SDS011;22418;51.210;6.976;2023-09-30T13:41:43;11.40;;;3.25;;
36383;SDS011;22418;51.210;6.976;2023-09-30T13:44:13;14.48;;;3.95;;
36383;SDS011;22418;51.210;6.976;2023-09-30T13:46:44;10.57;;;3.40;;
36383;SDS011;22418;51.210;6.976;2023-09-30T13:49:15;10.20;;;3.47;;
36383;SDS011;22418;51.210;6.976;2023-09-30T13:51:47;5.28;;;2.75;;
36383;SDS011;22418;51.210;6.976;2023-09-30T13:54:18;10.67;;;3.60;;
36383;SDS011;22418;51.210;6.976;2023-09-30T13:56:48;12.90;;;3.23;;
36383;SDS011;22418;51.210;6.976;2023-09-30T13:59:19;8.82;;;2.90;;
36383;SDS011;22418;51.210;6.976;2023-09-30T14:01:50;8.50;;;2.73;;
36383;SDS011;22418;51.210;6.976;2023-09-30T14:04:20;9.33;;;3.37;;
36383;SDS011;22418;51.210;6.976;2023-09-30T14:06:51;13.10;;;3.33;;
36383;SDS011;22418;51.210;6.976;2023-09-30T14:09:22;9.43;;;3.20;;
36383;SDS011;22418;51.210;6.976;2023-09-30T14:11:52;10.47;;;3.17;;
36383;SDS011;22418;51.210;6.976;2023-09-30T14:14:23;7.87;;;2.87;;
36383;SDS011;22418;51.210;6.976;2023-09-30T14:16:53;9.97;;;3.00;;
36383;SDS011;22418;51.210;6.976;2023-09-30T14:19:24;6.67;;;2.93;;
36383;SDS011;22418;51.210;6.976;2023-09-30T14:21:54;7.57;;;2.70;;
36383;SDS011;22418;51.210;6.976;2023-09-30T14:24:26;7.18;;;2.50;;
36383;SDS011;22418;51.210;6.976;2023-09-30T14:26:57;8.73;;;2.90;;
36383;SDS011;22418;51.210;6.976;2023-09-30T14:29:27;6.83;;;3.27;;
36383;SDS011;22418;51.210;6.976;2023-09-30T14:31:58;6.63;;;2.87;;
36383;SDS011;22418;51.210;6.976;2023-09-30T14:34:29;17.48;;;3.88;;
36383;SDS011;22418;51.210;6.976;2023-09-30T14:36:59;8.83;;;2.87;;
36383;SDS011;22418;51.210;6.976;2023-09-30T14:39:30;9.47;;;2.40;;
36383;SDS011;22418;51.210;6.976;2023-09-30T14:42:00;9.20;;;2.83;;
36383;SDS011;22418;51.210;6.976;2023-09-30T14:44:31;8.07;;;3.17;;
36383;SDS011;22418;51.210;6.976;2023-09-30T14:47:02;6.13;;;2.80;;
36383;SDS011;22418;51.210;6.976;2023-09-30T14:49:32;9.17;;;2.70;;
36383;SDS011;22418;51.210;6.976;2023-09-30T14:52:03;10.23;;;2.93;;
36383;SDS011;22418;51.210;6.976;2023-09-30T14:54:35;9.63;;;3.22;;
36383;SDS011;22418;51.210;6.976;2023-09-30T14:57:06;11.98;;;4.05;;
36383;SDS011;22418;51.210;6.976;2023-09-30T14:59:38;11.50;;;3.53;;
36383;SDS011;22418;51.210;6.976;2023-09-30T15:02:09;12.57;;;3.70;;
36383;SDS011;22418;51.210;6.976;2023-09-30T15:04:40;7.55;;;2.90;;
36383;SDS011;22418;51.210;6.976;2023-09-30T15:07:11;9.20;;;3.43;;
36383;SDS011;22418;51.210;6.976;2023-09-30T15:09:42;7.78;;;2.50;;
36383;SDS011;22418;51.210;6.976;2023-09-30T15:12:12;7.70;;;2.63;;
36383;SDS011;22418;51.210;6.976;2023-09-30T15:14:43;6.47;;;2.60;;
36383;SDS011;22418;51.210;6.976;2023-09-30T15:17:14;6.80;;;2.70;;
36383;SDS011;22418;51.210;6.976;2023-09-30T15:19:45;8.57;;;2.60;;
36383;SDS011;22418;51.210;6.976;2023-09-30T15:22:16;10.27;;;2.97;;
36383;SDS011;22418;51.210;6.976;2023-09-30T15:24:46;10.37;;;2.70;;
36383;SDS011;22418;51.210;6.976;2023-09-30T15:27:17;8.20;;;2.97;;
36383;SDS011;22418;51.210;6.976;2023-09-30T15:29:48;10.93;;;2.60;;
36383;SDS011;22418;51.210;6.976;2023-09-30T15:32:18;8.43;;;2.93;;
36383;SDS011;22418;51.210;6.976;2023-09-30T15:34:49;13.60;;;3.43;;
36383;SDS011;22418;51.210;6.976;2023-09-30T15:37:20;11.80;;;3.63;;
36383;SDS011;22418;51.210;6.976;2023-09-30T15:39:50;10.03;;;3.03;;
36383;SDS011;22418;51.210;6.976;2023-09-30T15:42:21;7.10;;;2.80;;
36383;SDS011;22418;51.210;6.976;2023-09-30T15:44:51;7.23;;;3.00;;
36383;SDS011;22418;51.210;6.976;2023-09-30T15:47:26;7.88;;;2.85;;
36383;SDS011;22418;51.210;6.976;2023-09-30T15:49:56;6.60;;;2.70;;